Αρχική σελίδα
METAR-TAF:

METAR-TAF

Αεροδρόμια :

Χαρτούμ, Σουδάν

γεωγραφικό πλάτος: 15-36N, γεωγραφικό μήκος: 032-33E, υψόμετρο: 382 μ

Παρών καιρός

Η αναφορά έγινε 18 λεπτά πριν, στις 08:00 UTC
Άνεμος 14 kt από Ν/ΝΔ
Θερμοκρασία 32°C
Υγρασία 41%
Πίεση 1010 hPa

METAR: HSSS 250800Z 21014KT 3000BLDU 32/17 Q1010 TEMPO 5000

Χρόνος: 11:18 (08:18 UTC)

Πρόγνωση Καιρού

Η αναφορά έγινε 3 ώρες και 18 λεπτά πριν, στις 05:00 UTC
Η πρόγνωση ισχύει από τις 25 στις 06 UTC έως τις 26 στις 12 UTC
Άνεμος 15 kt από Ν με ριπές μέχρι 25 kt
Ορατότητα 10 χλμ και άνω
Λίγα νέφη σε ύψος 4000 πόδια
Διάσπαρτα νέφη σε ύψος 14000 πόδια
Προσωρινά
από 25 στις 06 UTC έως τις 25 στις 09 UTC
Ορατότητα: 6000 μ

TAF: HSSS 250500Z 2506/2612 18015G25KT 9999 FEW040 SCT140 TEMPO 2506/2509 6000

Μετεωρολογικές αναφορές και προγνώσεις για περισσότερα από 4000 αεροδρόμια (δελτία METAR και TAF).

Οι διαθέσιμοι σταθμοί απεικονίζονται στο χάρτη με κίτρινες και κόκκινες κουκκίδες.

Μετακινήστε το ποντίκι πάνω από τις κουκκίδες για να δείτε το όνομα του σταθμού.

Στη συνέχεια, κάντε κλικ για να δείτε τις μετεωρολογικές αναφορές και τις προγνώσεις καιρού.

Για να αλλάξετε το χάρτη: κάντε κλικ στα πράσινα κουμπιά με τον μαύρο σταυρό για να ζουμάρετε, στο πράσινο κουμπί με την παύλα για να αφαιρέσετε το ζουμ ή στα πράσινα βέλη για να αντιπαραβάλλετε χάρτες.


METAR-TAF: